Time;durP1;ratioP1;P1;durP2;ratioP2;P2;SDS_P1;SDS_P2;PMS_P1;PMS_P2;Temp;Humidity;BMP_temperature;BMP_pressure;BME280_temperature;BME280_humidity;BME280_pressure;Samples;Min_cycle;Max_cycle;Signal;HPM_P1;HPM_P2
2022/05/19 00:01:56;;;;;;;;;5.75;5.75;;;;;25.49;46.41;101231.34;6279864;22;45289;-84
2022/05/19 00:04:25;;;;;;;;;2.75;2.75;;;;;25.46;45.85;101227.00;6249539;22;45541;-85
2022/05/19 00:06:51;;;;;;;;;5.50;5.50;;;;;25.47;46.23;101220.66;6249486;22;45467;-84
2022/05/19 00:09:17;;;;;;;;;6.25;4.50;;;;;25.48;45.75;101218.84;6278020;22;45247;-84
2022/05/19 00:11:45;;;;;;;;;7.75;6.00;;;;;25.45;46.20;101211.78;6278551;22;45372;-85
2022/05/19 00:14:14;;;;;;;;;6.25;6.25;;;;;25.45;46.19;101205.53;6279552;22;45471;-85
2022/05/19 00:16:39;;;;;;;;;5.25;5.25;;;;;25.45;46.09;101209.09;6278888;22;45281;-84
2022/05/19 00:19:06;;;;;;;;;4.75;4.75;;;;;25.47;46.53;101200.91;6278650;22;45366;-84
2022/05/19 00:21:32;;;;;;;;;8.00;7.00;;;;;25.45;46.15;101192.91;6251586;22;47324;-84
2022/05/19 00:23:57;;;;;;;;;4.75;4.75;;;;;25.44;46.50;101193.00;6250609;22;45195;-84
2022/05/19 00:26:23;;;;;;;;;6.75;5.50;;;;;25.42;46.06;101192.22;6279829;22;45164;-85
2022/05/19 00:28:49;;;;;;;;;7.75;6.50;;;;;25.35;46.03;101186.31;6252206;22;45188;-84
2022/05/19 00:31:15;;;;;;;;;6.75;6.00;;;;;25.34;46.53;101183.72;6252076;22;47149;-85
2022/05/19 00:33:40;;;;;;;;;6.50;6.00;;;;;25.32;46.68;101186.50;6251449;22;45183;-85
2022/05/19 00:36:12;;;;;;;;;10.00;7.50;;;;;25.27;46.86;101186.78;6278664;22;45396;-85
2022/05/19 00:38:41;;;;;;;;;6.75;5.75;;;;;25.26;46.69;101176.06;6251190;22;45415;-85
2022/05/19 00:41:08;;;;;;;;;4.50;4.50;;;;;25.23;46.92;101176.25;6251314;22;47363;-85
2022/05/19 00:43:40;;;;;;;;;6.00;5.50;;;;;25.23;47.32;101171.75;6251035;22;46162;-85
2022/05/19 00:46:19;;;;;;;;;9.00;9.00;;;;;25.23;47.06;101171.75;6251686;22;45414;-85
2022/05/19 00:48:55;;;;;;;;;7.25;7.25;;;;;25.24;46.77;101161.84;6278648;22;45263;-85
2022/05/19 00:51:34;;;;;;;;;8.25;7.00;;;;;25.23;47.22;101158.28;6251170;22;47181;-85
2022/05/19 00:54:02;;;;;;;;;7.00;7.00;;;;;25.22;47.36;101153.81;6250878;22;45160;-85
2022/05/19 00:56:34;;;;;;;;;9.50;8.25;;;;;25.20;47.50;101146.78;6251707;22;45370;-84
2022/05/19 00:59:21;;;;;;;;;7.25;6.25;;;;;25.19;47.63;101145.06;6279301;22;45156;-85
2022/05/19 01:01:49;;;;;;;;;10.50;7.25;;;;;25.17;47.95;101145.13;6250612;22;47678;-85
2022/05/19 01:04:25;;;;;;;;;9.25;9.25;;;;;25.16;48.28;101140.72;6250703;22;45314;-85
2022/05/19 01:06:56;;;;;;;;;11.50;9.25;;;;;25.17;48.36;101136.19;6250794;22;45243;-85
2022/05/19 01:09:25;;;;;;;;;12.00;11.00;;;;;25.17;48.93;101142.44;6253982;22;45478;-85
2022/05/19 01:11:55;;;;;;;;;11.75;11.00;;;;;25.16;49.29;101142.56;6278707;22;46323;-85
2022/05/19 01:14:22;;;;;;;;;8.00;8.00;;;;;25.16;49.43;101140.72;6277635;22;45376;-85
2022/05/19 01:16:47;;;;;;;;;7.75;7.25;;;;;25.16;49.71;101132.63;6251522;22;45212;-85
2022/05/19 01:19:45;;;;;;;;;10.50;8.50;;;;;25.17;49.80;101128.09;6277942;22;45453;-85
2022/05/19 01:22:36;;;;;;;;;9.50;8.75;;;;;25.18;50.17;101133.44;6250380;22;46841;-85
2022/05/19 01:25:39;;;;;;;;;9.00;9.00;;;;;25.20;50.24;101131.47;6278662;22;45359;-85
2022/05/19 01:28:05;;;;;;;;;7.75;7.75;;;;;25.18;50.09;101121.75;6251302;22;45409;-85
2022/05/19 01:30:31;;;;;;;;;7.75;7.00;;;;;25.19;50.39;101123.50;6278893;22;45429;-85
2022/05/19 01:32:57;;;;;;;;;11.25;9.00;;;;;25.20;50.42;101131.47;6251024;22;46791;-85
2022/05/19 01:35:23;;;;;;;;;10.25;9.50;;;;;25.16;50.53;101129.94;6250755;22;45732;-85
2022/05/19 01:37:51;;;;;;;;;10.00;10.00;;;;;25.16;50.41;101131.78;6250847;22;45323;-85
2022/05/19 01:40:48;;;;;;;;;9.00;7.00;;;;;25.15;50.00;101133.56;6251013;22;45148;-85
2022/05/19 01:43:38;;;;;;;;;14.00;12.00;;;;;25.15;50.74;101128.19;6250956;22;48258;-85
2022/05/19 01:46:22;;;;;;;;;8.00;8.00;;;;;25.13;50.98;101140.88;6278811;22;45369;-85
2022/05/19 01:48:52;;;;;;;;;10.50;10.50;;;;;25.11;50.34;101128.44;6279191;22;45251;-84
2022/05/19 01:51:31;;;;;;;;;9.50;9.50;;;;;25.11;51.10;101129.31;6251460;22;45573;-84
2022/05/19 01:54:19;;;;;;;;;10.50;10.50;;;;;25.09;51.28;101128.53;6279266;22;46403;-85
2022/05/19 01:57:07;;;;;;;;;12.50;10.50;;;;;25.09;51.86;101126.69;6252022;22;45742;-84
2022/05/19 01:59:47;;;;;;;;;10.50;9.50;;;;;25.09;51.86;101128.53;6279982;22;45386;-86
2022/05/19 02:02:39;;;;;;;;;11.00;10.00;;;;;25.12;52.05;101131.03;6276993;22;45494;-85
2022/05/19 02:05:25;;;;;;;;;14.50;12.00;;;;;25.13;51.94;101119.31;6279230;22;45378;-85
2022/05/19 02:07:54;;;;;;;;;12.25;12.25;;;;;25.17;52.24;101130.81;6276357;22;45188;-85
2022/05/19 02:10:29;;;;;;;;;9.75;9.75;;;;;25.19;52.08;101134.28;6275943;22;45385;-86
2022/05/19 02:12:58;;;;;;;;;11.00;11.00;;;;;25.17;51.73;101122.72;6250587;22;45433;-86
2022/05/19 02:15:35;;;;;;;;;12.50;12.25;;;;;25.16;52.62;101118.31;6278583;22;46089;-86
2022/05/19 02:18:02;;;;;;;;;10.75;10.75;;;;;25.15;52.92;101130.88;6250148;22;45410;-85
2022/05/19 02:20:29;;;;;;;;;9.00;9.00;;;;;25.15;52.37;101128.19;6251064;22;45410;-85
2022/05/19 02:23:02;;;;;;;;;11.00;11.00;;;;;25.16;52.70;101124.56;6250210;22;45939;-86
2022/05/19 02:25:40;;;;;;;;;12.25;12.25;;;;;25.16;52.92;101123.69;6250491;22;45972;-85
2022/05/19 02:28:31;;;;;;;;;13.00;12.00;;;;;25.16;52.60;101123.69;6250140;22;45513;-85
2022/05/19 02:31:00;;;;;;;;;11.50;11.50;;;;;25.15;52.70;101122.78;6251437;22;45321;-85
2022/05/19 02:33:26;;;;;;;;;11.75;11.75;;;;;25.17;52.67;101131.66;6252020;22;45377;-86
2022/05/19 02:35:52;;;;;;;;;11.75;10.50;;;;;25.18;52.46;101127.13;6251751;22;47305;-85
2022/05/19 02:38:20;;;;;;;;;14.25;13.00;;;;;25.16;52.38;101129.94;6251795;22;45201;-85
2022/05/19 02:40:46;;;;;;;;;12.00;11.50;;;;;25.12;52.61;101122.94;6278892;22;45505;-86
2022/05/19 02:43:13;;;;;;;;;13.75;11.75;;;;;25.13;52.78;101130.09;6278475;22;45382;-85
2022/05/19 02:45:38;;;;;;;;;12.25;12.25;;;;;25.12;52.98;101136.41;6250671;22;48266;-84
2022/05/19 02:48:07;;;;;;;;;12.25;12.25;;;;;25.12;53.53;101127.47;6278823;22;45309;-85
2022/05/19 02:50:33;;;;;;;;;11.00;10.00;;;;;25.07;53.50;101128.63;6250416;22;45237;-85
2022/05/19 02:52:59;;;;;;;;;10.75;10.75;;;;;25.06;53.12;101128.69;6251394;22;45255;-85
2022/05/19 02:55:26;;;;;;;;;14.25;13.25;;;;;25.07;53.29;101133.13;6250320;22;46650;-85
2022/05/19 02:57:52;;;;;;;;;14.25;13.25;;;;;25.02;53.67;101132.53;6250488;22;45385;-85
2022/05/19 03:00:22;;;;;;;;;14.50;13.75;;;;;25.02;53.63;101135.22;6250693;22;45316;-85
2022/05/19 03:02:49;;;;;;;;;11.50;11.50;;;;;24.97;53.40;101126.56;6278345;22;45110;-85
2022/05/19 03:05:20;;;;;;;;;11.25;11.25;;;;;24.99;53.63;101138.97;6278378;22;46247;-85
2022/05/19 03:07:46;;;;;;;;;14.75;13.75;;;;;24.96;53.81;101133.75;6250274;22;45406;-85
2022/05/19 03:10:12;;;;;;;;;12.50;12.50;;;;;24.96;53.72;101130.19;6278512;22;45325;-85
2022/05/19 03:12:40;;;;;;;;;12.00;12.00;;;;;24.94;53.63;101129.41;6250634;22;45581;-85
2022/05/19 03:15:07;;;;;;;;;12.50;12.00;;;;;24.94;53.49;101133.00;6250815;22;46140;-87
2022/05/19 03:17:32;;;;;;;;;15.25;14.00;;;;;24.91;54.09;101140.34;6277883;22;45377;-85
2022/05/19 03:19:58;;;;;;;;;14.00;13.00;;;;;24.89;54.04;101131.53;6250774;22;45344;-86
2022/05/19 03:22:26;;;;;;;;;13.25;11.50;;;;;24.87;53.89;101132.47;6250266;22;45630;-85
2022/05/19 03:24:52;;;;;;;;;13.75;12.50;;;;;24.85;54.03;101128.13;6250059;22;47552;-85
2022/05/19 03:27:20;;;;;;;;;14.00;13.00;;;;;24.87;54.30;101131.59;6250487;22;45701;-85
2022/05/19 03:29:50;;;;;;;;;10.25;10.25;;;;;24.87;53.84;101132.47;6250388;22;45169;-85
2022/05/19 03:32:16;;;;;;;;;13.00;11.25;;;;;24.85;54.38;101125.41;6249799;22;45556;-85
2022/05/19 03:34:45;;;;;;;;;11.75;10.75;;;;;24.84;54.38;101135.34;6250143;22;47207;-85
2022/05/19 03:37:11;;;;;;;;;12.75;12.00;;;;;24.84;54.18;101139.84;6249460;22;45721;-84
2022/05/19 03:39:37;;;;;;;;;12.75;11.25;;;;;24.83;54.32;101138.09;6250456;22;45309;-84
2022/05/19 03:42:05;;;;;;;;;13.50;13.50;;;;;24.81;54.01;101132.81;6251304;22;45311;-84
2022/05/19 03:44:31;;;;;;;;;13.50;12.75;;;;;24.82;54.49;101122.91;6251008;22;46774;-84
2022/05/19 03:46:57;;;;;;;;;12.25;12.25;;;;;24.84;53.82;101127.25;6251596;22;45182;-84
2022/05/19 03:49:25;;;;;;;;;12.25;12.00;;;;;24.85;54.01;101128.97;6251481;22;45137;-84
2022/05/19 03:51:50;;;;;;;;;13.50;12.25;;;;;24.85;53.57;101123.59;6251392;22;45161;-84
2022/05/19 03:54:16;;;;;;;;;12.00;12.00;;;;;24.87;54.14;101124.38;6251318;22;46998;-85
2022/05/19 03:56:41;;;;;;;;;11.75;11.75;;;;;24.88;53.94;101130.63;6251695;22;45275;-85
2022/05/19 03:59:10;;;;;;;;;11.50;11.50;;;;;24.90;54.09;101130.56;6251843;22;45260;-85
2022/05/19 04:01:36;;;;;;;;;14.75;13.75;;;;;24.91;53.92;101133.13;6251819;22;45362;-85
2022/05/19 04:04:02;;;;;;;;;10.00;10.00;;;;;24.91;53.69;101137.66;6251366;22;47097;-84
2022/05/19 04:06:28;;;;;;;;;13.00;12.75;;;;;24.92;53.56;101144.81;6251552;22;45196;-85
2022/05/19 04:08:54;;;;;;;;;13.00;13.00;;;;;24.91;53.78;101132.28;6251979;22;45666;-84
2022/05/19 04:11:19;;;;;;;;;14.00;10.25;;;;;24.93;53.44;101136.63;6251130;22;45279;-84
2022/05/19 04:13:45;;;;;;;;;12.00;10.50;;;;;24.91;53.93;101134.97;6279583;22;45272;-84
2022/05/19 04:16:11;;;;;;;;;12.75;12.75;;;;;24.93;53.82;101128.53;6251061;22;45122;-85
2022/05/19 04:18:37;;;;;;;;;11.00;10.75;;;;;24.90;53.90;101131.41;6251710;22;45378;-85
2022/05/19 04:21:03;;;;;;;;;13.25;12.25;;;;;24.88;53.67;101127.94;6252494;22;45398;-85
2022/05/19 04:23:29;;;;;;;;;13.00;11.25;;;;;24.86;53.73;101129.88;6279206;22;45694;-85
2022/05/19 04:25:55;;;;;;;;;13.75;13.00;;;;;24.88;53.95;101127.94;6279620;22;45263;-85
2022/05/19 04:28:25;;;;;;;;;12.25;12.25;;;;;24.87;53.85;101136.97;6252368;22;45415;-85
2022/05/19 04:30:51;;;;;;;;;9.75;9.75;;;;;24.87;54.15;101142.38;6251857;22;45498;-85
2022/05/19 04:33:17;;;;;;;;;11.50;11.50;;;;;24.85;54.03;101142.44;6251279;22;47222;-85
2022/05/19 04:35:43;;;;;;;;;12.25;12.25;;;;;24.83;54.33;101144.38;6250978;22;45425;-85
2022/05/19 04:38:11;;;;;;;;;12.00;12.00;;;;;24.82;54.20;101148.00;6251595;22;45441;-85
2022/05/19 04:40:48;;;;;;;;;11.25;11.00;;;;;24.84;54.58;101156.03;6252356;22;45185;-85
2022/05/19 04:43:22;;;;;;;;;12.75;12.75;;;;;24.84;54.22;101181.13;6253276;22;45845;-85
2022/05/19 04:45:49;;;;;;;;;15.00;14.00;;;;;24.86;54.43;101194.53;6251337;22;45463;-86
2022/05/19 04:48:15;;;;;;;;;14.00;13.00;;;;;24.87;54.33;101182.78;6251816;22;45181;-85
2022/05/19 04:50:40;;;;;;;;;13.50;13.50;;;;;24.85;54.64;101201.69;6251346;22;45472;-84
2022/05/19 04:53:08;;;;;;;;;15.75;15.75;;;;;24.83;54.82;101203.63;6279595;22;46286;-85
2022/05/19 04:55:42;;;;;;;;;14.25;13.75;;;;;24.72;55.68;101202.47;6282606;22;45315;-85
2022/05/19 04:58:17;;;;;;;;;15.00;13.75;;;;;24.65;55.75;101210.91;6279983;22;45357;-90
2022/05/19 05:47:27;;;;;;;;;;;;;;;;;;;;;
2022/05/19 06:01:57;;;;;;;;;;;;;;;;;;;;;
2022/05/19 06:11:31;;;;;;;;;15.50;13.50;;;;;24.46;57.43;101260.44;5841180;24;45427;-83
2022/05/19 06:14:14;;;;;;;;;12.50;11.25;;;;;24.46;57.44;101269.41;5842034;23;45489;-84
2022/05/19 06:17:01;;;;;;;;;13.50;12.50;;;;;24.40;57.52;101261.59;5978977;23;46926;-84
2022/05/19 06:20:14;;;;;;;;;;;;;;;;;;;;;
2022/05/19 06:22:48;;;;;;;;;16.25;16.00;;;;;24.31;58.44;101262.97;6008396;23;68340;-83
2022/05/19 06:28:22;;;;;;;;;;;;;;;;;;;;;
2022/05/19 06:31:17;;;;;;;;;17.50;15.00;;;;;24.32;58.90;101258.44;6277100;22;72895;-82
2022/05/19 06:34:13;;;;;;;;;;;;;;;;;;;;;
2022/05/19 06:36:52;;;;;;;;;;;;;;;;;;;;;
2022/05/19 07:30:59;;;;;;;;;17.75;17.25;;;;;23.96;58.54;101287.19;6171717;22;46814;-84
2022/05/19 07:33:28;;;;;;;;;18.00;17.75;;;;;23.97;58.64;101290.75;6220174;22;45327;-79
2022/05/19 07:35:55;;;;;;;;;20.00;18.50;;;;;23.96;58.42;101295.25;6247681;22;45203;-79
2022/05/19 07:38:21;;;;;;;;;18.75;16.25;;;;;23.95;58.62;101292.63;6250358;22;46066;-79
2022/05/19 07:40:54;;;;;;;;;17.25;16.75;;;;;23.98;58.29;101297.91;6248059;22;45233;-82
2022/05/19 07:43:37;;;;;;;;;11.75;11.00;;;;;24.02;58.38;101314.72;6220898;22;45312;-82
2022/05/19 07:46:04;;;;;;;;;18.25;17.25;;;;;24.02;58.52;101304.84;6247695;22;46002;-82
2022/05/19 07:48:29;;;;;;;;;19.75;18.50;;;;;24.05;58.07;101302.00;6247908;22;45332;-81
2022/05/19 07:50:54;;;;;;;;;14.25;13.25;;;;;24.10;58.29;101320.59;6220535;22;45288;-80
2022/05/19 07:53:20;;;;;;;;;16.75;15.75;;;;;24.13;57.90;101320.44;6248237;22;45346;-80
2022/05/19 07:55:46;;;;;;;;;16.50;14.75;;;;;24.19;58.00;101331.78;6248351;22;45402;-84
2022/05/19 07:58:11;;;;;;;;;16.75;16.75;;;;;24.30;57.98;101354.53;6220507;22;47397;-85
2022/05/19 08:00:37;;;;;;;;;13.75;12.75;;;;;24.36;57.58;101344.34;6220783;22;45193;-84
2022/05/19 08:03:03;;;;;;;;;15.25;14.75;;;;;24.43;57.60;101351.16;6249867;22;45170;-84
2022/05/19 08:05:30;;;;;;;;;15.00;14.00;;;;;24.50;56.87;101349.03;6220653;22;45217;-86
2022/05/19 08:07:55;;;;;;;;;5.00;5.00;;;;;24.55;56.58;101368.50;6248049;22;46156;-86
2022/05/19 08:10:29;;;;;;;;;19.00;19.00;;;;;24.56;57.09;101367.56;6248718;22;45092;-86
2022/05/19 08:15:42;;;;;;;;;11.25;11.25;;;;;24.74;56.19;101383.72;6248519;22;45184;-86
2022/05/19 08:18:22;;;;;;;;;12.00;12.00;;;;;24.74;55.07;101389.97;6220402;22;47544;-86
2022/05/19 08:20:57;;;;;;;;;15.25;12.00;;;;;24.75;55.26;101401.59;6248274;22;45220;-79
2022/05/19 08:23:29;;;;;;;;;9.00;9.00;;;;;24.78;55.39;101396.94;6220234;22;45239;-79
2022/05/19 08:25:55;;;;;;;;;14.00;12.00;;;;;24.84;54.95;101423.53;6247344;22;45284;-78
2022/05/19 08:28:21;;;;;;;;;13.00;12.50;;;;;24.89;54.53;101433.22;6247329;22;45382;-79
2022/05/19 08:30:51;;;;;;;;;11.50;9.50;;;;;24.90;54.15;101422.34;6247628;22;45215;-79
2022/05/19 08:33:19;;;;;;;;;10.75;10.50;;;;;24.95;54.57;101438.28;6220435;22;45492;-78
2022/05/19 08:35:45;;;;;;;;;10.50;8.75;;;;;24.99;54.09;101453.31;6220262;22;45949;-78
2022/05/19 10:06:15;;;;;;;;;4.75;4.75;;;;;25.80;44.92;101561.38;6301356;22;45593;-83
2022/05/19 10:08:45;;;;;;;;;4.00;3.67;;;;;25.79;45.63;101562.28;6307261;22;45123;-86
2022/05/19 10:15:30;;;;;;;;;;;;;;;;;;;;;
2022/05/19 10:21:23;;;;;;;;;3.00;3.00;;;;;26.06;43.75;101579.72;6184740;23;45462;-89
2022/05/19 10:24:17;;;;;;;;;2.00;2.00;;;;;26.12;43.26;101592.00;6159146;23;45400;-87
2022/05/19 10:31:02;;;;;;;;;3.00;2.00;;;;;26.20;43.49;101592.44;6267160;22;45455;-83
2022/05/19 10:33:24;;;;;;;;;0.67;0.67;;;;;26.48;41.97;101594.44;6309536;22;45176;-83
2022/05/19 10:35:58;;;;;;;;;1.00;1.00;;;;;26.44;42.03;101595.59;6281595;22;45331;-81
2022/05/19 10:38:44;;;;;;;;;1.33;1.33;;;;;26.42;41.93;101591.25;6284200;22;45462;-84
2022/05/19 10:41:56;;;;;;;;;;;;;;;;;;;;;
2022/05/19 10:44:42;;;;;;;;;2.00;2.00;;;;;26.39;41.87;101595.84;6308128;22;72622;-83
2022/05/19 10:47:40;;;;;;;;;;;;;;;;;;;;;
2022/05/19 10:50:26;;;;;;;;;3.00;3.00;;;;;26.47;41.57;101598.13;6307737;22;72568;-83
2022/05/19 10:53:11;;;;;;;;;2.00;1.00;;;;;26.47;41.74;101598.13;6280876;22;47058;-83
2022/05/19 10:56:03;;;;;;;;;2.00;2.00;;;;;26.53;41.71;101596.94;6280725;22;45656;-83
2022/05/19 10:58:59;;;;;;;;;3.00;2.00;;;;;26.58;41.50;101589.44;6281133;22;45334;-84
2022/05/19 11:01:49;;;;;;;;;2.33;2.33;;;;;26.69;41.45;101581.56;6281041;22;45422;-83
2022/05/19 11:05:04;;;;;;;;;2.33;2.33;;;;;26.73;41.23;101585.84;6279605;22;46140;-85
2022/05/19 11:11:52;;;;;;;;;2.00;2.00;;;;;27.04;40.99;101592.13;6152595;23;45404;-84
2022/05/19 11:14:44;;;;;;;;;1.00;1.00;;;;;27.20;40.27;101581.31;6153906;23;45304;-85
2022/05/19 11:17:46;;;;;;;;;2.33;1.33;;;;;27.36;40.10;101589.38;6281090;22;47743;-85
2022/05/19 11:20:25;;;;;;;;;1.00;1.00;;;;;27.42;39.86;101597.09;6280647;22;45138;-85
2022/05/19 11:23:04;;;;;;;;;1.33;1.33;;;;;27.48;39.73;101585.94;6280753;22;45339;-83
2022/05/19 11:28:51;;;;;;;;;2.00;2.00;;;;;27.48;39.44;101589.50;6308859;22;45380;-85
2022/05/19 11:31:29;;;;;;;;;1.00;1.00;;;;;27.47;38.79;101568.81;6280818;22;45302;-84
2022/05/19 11:33:59;;;;;;;;;2.00;1.00;;;;;27.46;38.80;101563.50;6280934;22;45188;-85
2022/05/19 11:36:41;;;;;;;;;2.00;2.00;;;;;27.59;39.22;101571.75;6281095;22;45378;-86
2022/05/19 11:39:44;;;;;;;;;2.00;2.00;;;;;27.75;39.13;101572.50;6280847;22;48175;-85
2022/05/19 11:42:32;;;;;;;;;1.00;1.00;;;;;27.88;39.10;101587.06;6247095;22;45136;-85
2022/05/19 11:45:02;;;;;;;;;4.00;3.00;;;;;28.02;38.82;101590.72;6280589;22;45180;-84
2022/05/19 11:56:24;;;;;;;;;1.67;1.67;;;;;28.53;37.52;101610.00;6308479;22;45314;-83
2022/05/19 11:58:50;;;;;;;;;1.00;1.00;;;;;28.61;36.88;101623.94;6308746;22;45164;-84
2022/05/19 12:01:26;;;;;;;;;1.00;1.00;;;;;28.71;36.69;101608.81;6280517;22;48135;-84
2022/05/19 12:04:13;;;;;;;;;2.00;2.00;;;;;28.92;36.50;101609.22;6282130;22;45185;-84
2022/05/19 12:06:53;;;;;;;;;0.00;0.00;;;;;28.92;36.00;101632.72;6283253;22;45248;-83
2022/05/19 12:09:33;;;;;;;;;2.00;2.00;;;;;28.74;35.65;101632.97;6310817;22;45235;-84
2022/05/19 12:12:05;;;;;;;;;0.67;0.67;;;;;28.49;35.68;101641.84;6307943;22;47103;-85
2022/05/19 12:14:46;;;;;;;;;0.00;0.00;;;;;28.30;36.08;101636.69;6282702;22;45246;-83
2022/05/19 12:17:20;;;;;;;;;1.00;1.00;;;;;28.31;36.93;101633.03;6282361;22;45302;-84
2022/05/19 12:20:03;;;;;;;;;2.00;2.00;;;;;28.41;37.24;101644.13;6281907;22;45268;-85
2022/05/19 12:22:43;;;;;;;;;1.33;1.00;;;;;28.51;36.41;101634.47;6309981;22;45387;-86
2022/05/19 12:25:17;;;;;;;;;1.00;1.00;;;;;28.67;36.79;101638.91;6281335;22;45190;-84
2022/05/19 12:28:25;;;;;;;;;0.33;0.33;;;;;28.82;37.17;101643.31;6310485;22;45346;-85
2022/05/19 12:34:00;;;;;;;;;3.67;1.33;;;;;29.03;36.64;101639.19;6309984;22;45610;-84
2022/05/19 12:36:31;;;;;;;;;2.00;2.00;;;;;29.01;36.40;101648.38;6309839;22;45524;-85
2022/05/19 12:39:26;;;;;;;;;1.00;1.00;;;;;28.91;36.45;101658.09;6281829;22;45193;-84
2022/05/19 12:41:59;;;;;;;;;1.00;1.00;;;;;28.87;36.54;101653.84;6275486;22;45129;-85
2022/05/19 12:44:46;;;;;;;;;1.33;1.33;;;;;28.93;36.82;101638.06;6281734;22;47979;-85
2022/05/19 12:47:24;;;;;;;;;1.00;1.00;;;;;29.00;35.99;101636.69;6282027;22;45124;-83
2022/05/19 12:50:12;;;;;;;;;1.00;1.00;;;;;29.12;36.39;101648.56;6281759;22;45453;-86
2022/05/19 12:53:02;;;;;;;;;2.00;2.00;;;;;29.22;35.91;101638.84;6281479;22;45370;-84
2022/05/19 12:55:32;;;;;;;;;0.00;0.00;;;;;29.33;36.15;101645.38;6279939;22;46673;-84
2022/05/19 12:58:41;;;;;;;;;2.00;2.00;;;;;29.39;36.09;101644.94;6281695;22;45299;-83
2022/05/19 13:01:27;;;;;;;;;1.33;1.33;;;;;29.45;36.01;101644.50;6281952;22;45339;-86
2022/05/19 13:04:16;;;;;;;;;1.00;1.00;;;;;29.54;35.95;101654.75;6281791;22;45236;-84
2022/05/19 13:06:54;;;;;;;;;3.00;2.00;;;;;29.51;35.75;101640.50;6245572;22;47977;-84
2022/05/19 13:09:34;;;;;;;;;1.00;1.00;;;;;29.45;35.38;101648.09;6245451;22;45277;-84
2022/05/19 13:12:24;;;;;;;;;1.33;1.33;;;;;29.50;35.40;101645.06;6245630;22;45361;-84
2022/05/19 13:15:02;;;;;;;;;1.33;1.33;;;;;29.63;35.57;101651.38;6247748;22;45545;-84
2022/05/19 13:17:42;;;;;;;;;1.33;1.33;;;;;29.75;35.34;101643.38;6252084;22;46237;-84
2022/05/19 13:20:33;;;;;;;;;1.67;1.67;;;;;29.87;35.16;101654.25;6249460;22;45295;-84
2022/05/19 13:23:04;;;;;;;;;1.67;1.67;;;;;29.97;35.12;101650.91;6253053;22;45307;-85
2022/05/19 13:25:37;;;;;;;;;1.00;1.00;;;;;30.06;35.28;101656.50;6254399;22;45242;-84
2022/05/19 13:30:56;;;;;;;;;1.00;1.00;;;;;30.09;35.13;101650.00;6248819;22;45349;-88
2022/05/19 13:33:54;;;;;;;;;;;;;;;;;;;;;
2022/05/19 13:36:48;;;;;;;;;;;;;;;;;;;;;
2022/05/19 13:39:51;;;;;;;;;1.67;1.67;;;;;30.02;35.27;101652.31;6244501;22;76578;-89
2022/05/19 13:42:20;;;;;;;;;2.67;1.33;;;;;29.99;35.15;101654.34;6245237;22;45870;-89
2022/05/19 13:45:05;;;;;;;;;1.00;1.00;;;;;30.02;35.26;101652.31;6246311;22;45606;-91
2022/05/19 13:47:36;;;;;;;;;2.00;2.00;;;;;30.01;35.01;101644.25;6245415;22;45249;-88
2022/05/19 13:53:18;;;;;;;;;2.00;2.00;;;;;30.10;35.04;101651.75;6245626;22;45443;-89
2022/05/19 13:55:54;;;;;;;;;0.67;0.00;;;;;30.10;34.94;101655.34;6243825;22;45434;-88
2022/05/19 13:58:21;;;;;;;;;3.67;2.67;;;;;30.03;35.03;101662.16;6244788;22;45432;-88
2022/05/19 14:01:27;;;;;;;;;;;;;;;;;;;;;
2022/05/19 14:07:05;;;;;;;;;2.67;2.67;;;;;29.79;35.76;101653.91;6312512;22;45374;-88
2022/05/19 14:10:07;;;;;;;;;2.00;2.00;;;;;29.83;35.76;101652.75;6282184;22;45516;-92
2022/05/19 14:12:51;;;;;;;;;2.00;2.00;;;;;29.98;35.45;101652.63;6282444;22;46921;-93
2022/05/19 14:15:28;;;;;;;;;2.00;2.00;;;;;30.01;35.17;101644.25;6283393;22;45502;-91
2022/05/19 14:22:22;;;;;;;;;;;;;;;;;;;;;
2022/05/19 14:25:44;;;;;;;;;;;;;;;;;;;;;
2022/05/19 14:28:56;;;;;;;;;;;;;;;;;;;;;
2022/05/19 14:32:02;;;;;;;;;;;;;;;;;;;;;
2022/05/19 14:45:44;;;;;;;;;;;;;;;;;;;;;
2022/05/19 14:49:05;;;;;;;;;;;;;;;;;;;;;
2022/05/19 15:17:05;;;;;;;;;3.67;3.00;;;;;29.63;35.57;101616.09;5926361;23;45521;-83
2022/05/19 15:19:40;;;;;;;;;;;;;;;;;;;;;
2022/05/19 15:22:35;;;;;;;;;2.33;1.33;;;;;29.86;34.99;101621.78;6004920;23;73298;-83
2022/05/19 15:25:18;;;;;;;;;2.33;2.33;;;;;29.97;35.01;101616.44;6006601;23;45427;-84
2022/05/19 15:28:41;;;;;;;;;;;;;;;;;;;;;
2022/05/19 15:34:57;;;;;;;;;3.00;3.00;;;;;30.26;34.70;101617.09;6028482;23;45270;-84
2022/05/19 15:41:30;;;;;;;;;1.67;1.67;;;;;30.39;34.60;101619.75;6092593;23;45533;-83
2022/05/19 15:43:58;;;;;;;;;3.33;3.33;;;;;30.29;34.00;101616.88;6069239;23;46948;-83
2022/05/19 15:57:09;;;;;;;;;;;;;;;;;;;;;
2022/05/19 16:18:16;;;;;;;;;5.67;4.67;;;;;29.79;35.61;101628.63;5891143;24;45365;-82
2022/05/19 16:24:06;;;;;;;;;4.67;4.67;;;;;29.60;36.24;101629.88;6067749;23;46454;-93
2022/05/19 16:26:32;;;;;;;;;3.67;3.33;;;;;29.55;36.39;101623.03;6111454;23;45308;-92
2022/05/19 16:28:58;;;;;;;;;3.00;2.00;;;;;29.42;36.33;101623.00;6222856;22;45456;-90
2022/05/19 16:31:57;;;;;;;;;;;;;;;;;;;;;
2022/05/19 16:34:49;;;;;;;;;3.33;3.00;;;;;29.51;36.21;101625.13;6309885;22;75279;-93
2022/05/19 16:40:17;;;;;;;;;3.67;3.67;;;;;29.64;35.61;101631.44;6313148;22;45208;-92
2022/05/19 16:43:24;;;;;;;;;;;;;;;;;;;;;
2022/05/19 16:45:45;;;;;;;;;4.00;3.00;;;;;29.82;35.28;101631.97;6299103;22;45639;-93
2022/05/19 16:48:15;;;;;;;;;5.67;5.33;;;;;29.88;34.92;101638.81;6284572;22;45418;-91
2022/05/19 16:51:31;;;;;;;;;;;;;;;;;;;;;
2022/05/19 16:57:44;;;;;;;;;3.00;3.00;;;;;30.86;34.90;101648.03;6309498;22;45287;-89
2022/05/19 17:04:28;;;;;;;;;;;;;;;;;;;;;
2022/05/19 17:06:59;;;;;;;;;3.00;3.00;;;;;35.23;29.61;101620.31;6155732;22;71347;-87
2022/05/19 17:09:25;;;;;;;;;2.00;2.00;;;;;36.10;28.37;101625.63;6302663;22;46250;-84
2022/05/19 17:11:51;;;;;;;;;4.00;4.00;;;;;36.48;27.39;101626.44;6280886;22;45198;-85
2022/05/19 17:14:29;;;;;;;;;3.25;3.25;;;;;36.67;26.80;101619.13;6282581;22;45200;-87
2022/05/19 17:16:54;;;;;;;;;3.00;3.00;;;;;36.56;26.57;101620.22;6282085;22;45440;-86
2022/05/19 17:19:31;;;;;;;;;4.00;3.67;;;;;36.18;26.53;101624.88;6281619;22;46888;-88
2022/05/19 17:22:28;;;;;;;;;4.33;4.33;;;;;35.70;26.69;101625.91;6280306;22;45404;-90
2022/05/19 17:28:55;;;;;;;;;4.33;4.33;;;;;34.27;28.04;101633.69;6090195;23;44758;-90
2022/05/19 17:31:28;;;;;;;;;4.00;4.00;;;;;33.54;28.30;101621.91;6095738;23;47377;-90
2022/05/19 17:33:56;;;;;;;;;3.00;3.00;;;;;32.80;29.04;101628.19;6095983;23;45246;-87
2022/05/19 17:36:51;;;;;;;;;3.67;3.67;;;;;32.01;29.70;101621.94;6093703;23;45358;-85
2022/05/19 17:42:52;;;;;;;;;4.67;4.67;;;;;30.46;31.65;101625.63;6053525;23;45412;-85
2022/05/19 17:45:18;;;;;;;;;5.75;5.00;;;;;30.02;32.19;101638.72;6194411;22;45406;-85
2022/05/19 17:48:13;;;;;;;;;5.75;4.00;;;;;29.48;33.06;101640.72;6216763;22;45296;-88
2022/05/19 17:50:55;;;;;;;;;4.67;4.67;;;;;28.97;33.82;101636.84;6283287;22;45492;-84
2022/05/19 17:53:36;;;;;;;;;8.00;5.75;;;;;28.55;34.53;101630.63;6281398;22;45421;-87
2022/05/19 17:56:27;;;;;;;;;4.67;4.67;;;;;28.21;35.35;101629.19;6281802;22;46094;-84
2022/05/19 17:58:53;;;;;;;;;5.33;5.33;;;;;28.01;35.21;101635.84;6147931;23;45407;-83
2022/05/19 18:01:52;;;;;;;;;6.50;6.50;;;;;27.82;35.98;101633.41;6130122;23;45532;-88
2022/05/19 18:19:40;;;;;;;;;5.50;5.50;;;;;26.55;38.66;101647.19;6096645;23;45753;-85
2022/05/19 18:23:10;;;;;;;;;;;;;;;;;;;;;
2022/05/19 18:33:16;;;;;;;;;5.00;4.00;;;;;25.87;40.46;101655.38;6034303;23;45801;-88
2022/05/19 18:50:18;;;;;;;;;4.50;4.50;;;;;25.27;41.76;101657.59;5982232;23;45347;-86
2022/05/19 22:26:04;;;;;;;;;2.00;1.00;;;;;22.38;44.31;101737.38;6297683;22;45394;-84
2022/05/19 22:28:30;;;;;;;;;2.33;2.33;;;;;22.33;44.47;101741.16;6350992;22;44930;-79
2022/05/19 22:31:46;;;;;;;;;2.67;1.67;;;;;22.31;44.25;101738.53;6328866;22;44719;-88
2022/05/19 23:07:27;;;;;;;;;1.00;1.00;;;;;21.82;45.57;101716.13;6226044;22;46180;-86
2022/05/19 23:10:49;;;;;;;;;;;;;;;;;;;;;
2022/05/19 23:18:09;;;;;;;;;3.67;1.00;;;;;21.80;45.43;101713.50;6181109;23;45567;-87